createdAt,value
2022-08-25T00:01:34.254Z,21.70
2022-08-25T00:03:39.493Z,21.64
2022-08-25T00:05:41.263Z,21.61
2022-08-25T00:07:42.788Z,21.56
2022-08-25T00:09:45.584Z,21.51
2022-08-25T00:11:49.299Z,21.49
2022-08-25T00:13:54.391Z,21.46
2022-08-25T00:15:56.370Z,21.42
2022-08-25T00:17:59.994Z,21.37
2022-08-25T00:20:02.204Z,21.31
2022-08-25T00:22:04.885Z,21.24
2022-08-25T00:24:06.607Z,21.17
2022-08-25T00:26:09.105Z,21.13
2022-08-25T00:28:11.038Z,21.12
2022-08-25T00:30:15.891Z,21.11
2022-08-25T00:32:18.347Z,21.10
2022-08-25T00:34:23.549Z,21.08
2022-08-25T00:36:26.631Z,21.08
2022-08-25T00:38:28.124Z,21.08
2022-08-25T00:40:30.010Z,21.07
2022-08-25T00:42:32.076Z,21.05
2022-08-25T00:44:34.099Z,21.05
2022-08-25T00:46:45.156Z,21.06
2022-08-25T00:48:51.722Z,21.07
2022-08-25T00:50:53.275Z,21.08
2022-08-25T00:52:58.060Z,21.07
2022-08-25T00:55:07.928Z,21.07
2022-08-25T00:57:12.910Z,21.05
2022-08-25T00:59:16.396Z,21.02
2022-08-25T01:01:18.123Z,20.99
2022-08-25T01:03:20.729Z,20.99
2022-08-25T01:05:27.450Z,20.96
2022-08-25T01:07:29.230Z,20.95
2022-08-25T01:09:32.568Z,20.95
2022-08-25T01:11:35.014Z,20.94
2022-08-25T01:13:42.235Z,20.93
2022-08-25T01:15:45.585Z,20.91
2022-08-25T01:17:51.085Z,20.88
2022-08-25T01:19:52.549Z,20.88
2022-08-25T01:21:54.613Z,20.85
2022-08-25T01:23:58.708Z,20.84
2022-08-25T01:26:11.162Z,20.84
2022-08-25T01:28:12.789Z,20.82
2022-08-25T01:30:14.654Z,20.80
2022-08-25T01:32:16.180Z,20.79
2022-08-25T01:34:19.392Z,20.76
2022-08-25T01:36:23.238Z,20.73
2022-08-25T01:38:24.768Z,20.70
2022-08-25T01:40:26.399Z,20.66
2022-08-25T01:43:06.314Z,20.62
2022-08-25T01:45:08.603Z,20.58
2022-08-25T01:47:11.449Z,20.55
2022-08-25T01:49:13.040Z,20.53
2022-08-25T01:51:16.156Z,20.50
2022-08-25T01:53:22.561Z,20.48
2022-08-25T01:55:24.094Z,20.45
2022-08-25T01:57:25.732Z,20.41
2022-08-25T01:59:27.561Z,20.38
2022-08-25T02:01:29.606Z,20.35
2022-08-25T02:03:31.677Z,20.32
2022-08-25T02:05:34.125Z,20.27
2022-08-25T02:07:36.414Z,20.24
2022-08-25T02:09:39.420Z,20.19
2022-08-25T02:11:43.508Z,20.16
2022-08-25T02:13:45.197Z,20.15
2022-08-25T02:15:51.757Z,20.12
2022-08-25T02:17:53.302Z,20.11
2022-08-25T02:19:56.916Z,20.10
2022-08-25T02:21:59.946Z,20.06
2022-08-25T02:24:02.274Z,20.04
2022-08-25T02:26:04.733Z,20.03
2022-08-25T02:28:07.172Z,20.02
2022-08-25T02:30:09.295Z,20.00
2022-08-25T02:32:10.860Z,19.98
2022-08-25T02:34:12.487Z,19.93
2022-08-25T02:36:14.161Z,19.93
2022-08-25T02:38:15.642Z,19.92
2022-08-25T02:40:17.729Z,19.92
2022-08-25T02:42:19.312Z,19.91
2022-08-25T02:44:20.897Z,19.90
2022-08-25T02:46:24.924Z,19.90
2022-08-25T02:48:26.624Z,19.87
2022-08-25T02:50:28.104Z,19.89
2022-08-25T02:52:29.618Z,19.87
2022-08-25T02:54:31.247Z,19.86
2022-08-25T02:56:33.374Z,19.84
2022-08-25T02:58:35.072Z,19.83
2022-08-25T03:00:37.651Z,19.81
2022-08-25T03:02:41.358Z,19.80
2022-08-25T03:04:43.609Z,19.80
2022-08-25T03:06:46.102Z,19.79
2022-08-25T03:08:47.582Z,19.78
2022-08-25T03:10:49.181Z,19.78
2022-08-25T03:12:53.672Z,19.79
2022-08-25T03:14:55.227Z,19.79
2022-08-25T03:16:57.247Z,19.76
2022-08-25T03:18:59.757Z,19.77
2022-08-25T03:21:03.304Z,19.75
2022-08-25T03:23:06.785Z,19.75
2022-08-25T03:25:27.472Z,19.73
2022-08-25T03:27:30.444Z,19.72
2022-08-25T03:29:33.290Z,19.72
2022-08-25T03:31:35.327Z,19.70
2022-08-25T03:33:38.304Z,19.71
2022-08-25T03:35:40.652Z,19.70
2022-08-25T03:37:42.186Z,19.70
2022-08-25T03:39:43.896Z,19.69
2022-08-25T03:41:47.166Z,19.69
2022-08-25T03:43:49.299Z,19.67
2022-08-25T03:45:52.028Z,19.63
2022-08-25T03:47:54.167Z,19.59
2022-08-25T03:49:56.311Z,19.53
2022-08-25T03:51:57.802Z,19.49
2022-08-25T03:54:00.784Z,19.48
2022-08-25T03:56:02.432Z,19.45
2022-08-25T03:58:03.984Z,19.41
2022-08-25T04:00:08.173Z,19.36
2022-08-25T04:02:09.701Z,19.30
2022-08-25T04:04:13.505Z,19.26
2022-08-25T04:06:21.584Z,19.22
2022-08-25T04:08:23.190Z,19.21
2022-08-25T04:10:24.926Z,19.20
2022-08-25T04:12:26.509Z,19.18
2022-08-25T04:14:28.021Z,19.16
2022-08-25T04:16:31.985Z,19.15
2022-08-25T04:18:34.310Z,19.14
2022-08-25T04:20:35.845Z,19.14
2022-08-25T04:22:38.474Z,19.12
2022-08-25T04:24:40.278Z,19.12
2022-08-25T04:26:45.978Z,19.11
2022-08-25T04:28:48.208Z,19.08
2022-08-25T04:30:52.158Z,19.06
2022-08-25T04:32:53.844Z,19.05
2022-08-25T04:34:55.347Z,19.04
2022-08-25T04:36:57.394Z,19.03
2022-08-25T04:38:58.987Z,19.01
2022-08-25T04:41:03.360Z,19.01
2022-08-25T04:43:04.817Z,19.03
2022-08-25T04:45:06.955Z,19.03
2022-08-25T04:47:08.593Z,19.04
2022-08-25T04:49:10.251Z,19.08
2022-08-25T04:51:15.324Z,19.10
2022-08-25T04:53:18.011Z,19.16
2022-08-25T04:55:20.367Z,19.19
2022-08-25T04:57:22.118Z,19.25
2022-08-25T04:59:23.779Z,19.29
2022-08-25T05:01:31.731Z,19.29
2022-08-25T05:03:33.340Z,19.31
2022-08-25T05:05:38.096Z,19.38
2022-08-25T05:07:39.570Z,19.41
2022-08-25T05:09:41.219Z,19.48
2022-08-25T05:11:42.827Z,19.51
2022-08-25T05:13:51.249Z,19.56
2022-08-25T05:15:58.621Z,19.61
2022-08-25T05:18:01.858Z,19.66
2022-08-25T05:20:03.754Z,19.70
2022-08-25T05:22:05.389Z,19.74
2022-08-25T05:24:07.751Z,19.80
2022-08-25T05:26:20.267Z,19.86
2022-08-25T05:28:22.280Z,19.90
2022-08-25T05:30:24.318Z,19.95
2022-08-25T05:32:25.843Z,20.00
2022-08-25T05:34:27.349Z,20.06
2022-08-25T05:36:29.582Z,20.11
2022-08-25T05:38:31.867Z,20.16
2022-08-25T05:40:34.236Z,20.18
2022-08-25T05:42:37.601Z,20.25
2022-08-25T05:44:39.101Z,20.30
2022-08-25T05:46:40.667Z,20.33
2022-08-25T05:48:42.380Z,20.39
2022-08-25T05:50:51.526Z,20.44
2022-08-25T05:52:53.876Z,20.50
2022-08-25T05:54:55.387Z,20.51
2022-08-25T05:56:58.232Z,20.58
2022-08-25T05:59:00.726Z,20.65
2022-08-25T06:01:22.521Z,20.71
2022-08-25T06:03:24.098Z,20.77
2022-08-25T06:05:25.659Z,20.81
2022-08-25T06:07:27.141Z,20.81
2022-08-25T06:09:28.847Z,20.78
2022-08-25T06:11:30.571Z,20.82
2022-08-25T06:13:32.068Z,20.84
2022-08-25T06:15:33.972Z,20.87
2022-08-25T06:17:35.435Z,20.93
2022-08-25T06:19:37.147Z,21.01
2022-08-25T06:21:43.005Z,21.09
2022-08-25T06:23:44.570Z,21.17
2022-08-25T06:25:50.982Z,21.15
2022-08-25T06:27:54.081Z,21.05
2022-08-25T06:29:56.074Z,21.04
2022-08-25T06:31:57.762Z,21.15
2022-08-25T06:33:59.286Z,21.28
2022-08-25T06:36:01.101Z,21.31
2022-08-25T06:38:02.704Z,21.36
2022-08-25T06:40:07.071Z,21.39
2022-08-25T06:42:09.926Z,21.42
2022-08-25T06:44:12.511Z,21.43
2022-08-25T06:46:17.211Z,21.49
2022-08-25T06:48:19.004Z,21.57
2022-08-25T06:50:20.637Z,21.59
2022-08-25T06:52:22.238Z,21.65
2022-08-25T06:54:30.982Z,21.70
2022-08-25T06:56:32.993Z,21.75
2022-08-25T06:58:34.592Z,21.84
2022-08-25T07:00:36.191Z,21.88
2022-08-25T07:02:38.593Z,21.88
2022-08-25T07:04:40.140Z,21.96
2022-08-25T07:06:41.727Z,21.97
2022-08-25T07:08:43.261Z,22.08
2022-08-25T07:10:47.995Z,22.16
2022-08-25T07:12:50.691Z,22.25
2022-08-25T07:15:10.085Z,22.25
2022-08-25T07:17:13.715Z,22.33
2022-08-25T07:19:16.297Z,22.41
2022-08-25T07:21:23.078Z,22.47
2022-08-25T07:23:27.915Z,22.55
2022-08-25T07:25:29.475Z,22.59
2022-08-25T07:27:31.082Z,22.61
2022-08-25T07:29:33.966Z,22.67
2022-08-25T07:31:36.020Z,22.77
2022-08-25T07:33:39.079Z,22.86
2022-08-25T07:35:40.608Z,22.93
2022-08-25T07:37:49.778Z,22.96
2022-08-25T07:39:51.587Z,22.99
2022-08-25T07:41:53.535Z,23.05
2022-08-25T07:43:55.046Z,23.11
2022-08-25T07:45:56.671Z,23.16
2022-08-25T07:48:01.482Z,23.22
2022-08-25T07:50:05.685Z,23.32
2022-08-25T07:52:07.367Z,23.37
2022-08-25T07:54:10.548Z,23.40
2022-08-25T07:56:13.889Z,23.46
2022-08-25T07:58:15.854Z,23.55
2022-08-25T08:00:18.156Z,23.58
2022-08-25T08:02:22.333Z,23.61
2022-08-25T08:04:26.348Z,23.67
2022-08-25T08:06:29.907Z,23.70
2022-08-25T08:08:31.433Z,23.75
2022-08-25T08:12:55.702Z,23.91
2022-08-25T08:14:58.956Z,23.96
2022-08-25T08:17:09.247Z,24.02
2022-08-25T08:19:10.750Z,24.10
2022-08-25T08:21:19.247Z,24.16
2022-08-25T08:23:27.646Z,24.18
2022-08-25T08:25:30.118Z,24.25
2022-08-25T08:27:32.340Z,24.32
2022-08-25T08:29:35.227Z,24.37
2022-08-25T08:31:36.979Z,24.41
2022-08-25T08:33:40.923Z,24.44
2022-08-25T08:35:43.218Z,24.52
2022-08-25T08:37:45.849Z,24.56
2022-08-25T08:39:47.407Z,24.62
2022-08-25T08:42:19.674Z,24.66
2022-08-25T08:44:28.144Z,24.74
2022-08-25T08:46:41.148Z,24.80
2022-08-25T08:49:01.480Z,24.85
2022-08-25T08:51:23.118Z,24.90
2022-08-25T08:53:43.797Z,24.96
2022-08-25T08:55:52.927Z,25.02
2022-08-25T08:57:57.760Z,25.11
2022-08-25T09:00:04.071Z,25.18
2022-08-25T09:02:14.944Z,25.28
2022-08-25T09:04:46.516Z,25.26
2022-08-25T09:06:49.935Z,25.29
2022-08-25T09:08:55.559Z,25.35
2022-08-25T09:11:23.081Z,25.41
2022-08-25T09:13:30.681Z,25.47
2022-08-25T09:16:03.095Z,25.57
2022-08-25T09:18:18.658Z,25.64
2022-08-25T09:20:28.696Z,25.71
2022-08-25T09:22:52.092Z,25.78
2022-08-25T09:25:08.486Z,25.83
2022-08-25T09:27:25.354Z,25.85
2022-08-25T09:29:35.539Z,25.89
2022-08-25T09:31:41.873Z,25.91
2022-08-25T09:33:43.455Z,25.93
2022-08-25T09:35:47.062Z,26.02
2022-08-25T09:37:57.302Z,26.08
2022-08-25T09:39:59.898Z,26.15
2022-08-25T09:42:01.681Z,26.22
2022-08-25T09:44:03.522Z,26.30
2022-08-25T09:46:20.735Z,26.35
2022-08-25T09:48:48.462Z,26.40
2022-08-25T09:51:02.510Z,26.49
2022-08-25T09:53:18.650Z,26.58
2022-08-25T09:55:27.351Z,26.67
2022-08-25T09:57:33.792Z,26.69
2022-08-25T09:59:36.950Z,26.74
2022-08-25T10:01:54.973Z,26.79
2022-08-25T10:04:00.029Z,26.72
2022-08-25T10:06:06.641Z,26.66
2022-08-25T10:08:30.296Z,26.71
2022-08-25T10:10:41.959Z,26.74
2022-08-25T10:12:51.169Z,26.84
2022-08-25T10:14:54.531Z,26.97
2022-08-25T10:17:24.827Z,27.12
2022-08-25T10:19:30.220Z,27.21
2022-08-25T10:21:32.034Z,27.35
2022-08-25T10:23:41.105Z,27.51
2022-08-25T10:25:57.758Z,27.63
2022-08-25T10:28:27.255Z,27.74
2022-08-25T10:30:28.695Z,27.88
2022-08-25T10:33:11.116Z,27.87
2022-08-25T10:35:17.243Z,27.94
2022-08-25T10:37:37.200Z,28.14
2022-08-25T10:39:43.317Z,28.36
2022-08-25T10:42:03.884Z,28.56
2022-08-25T10:44:59.101Z,28.82
2022-08-25T10:47:28.976Z,28.87
2022-08-25T10:49:53.980Z,29.09
2022-08-25T10:52:03.528Z,29.25
2022-08-25T10:54:28.414Z,29.49
2022-08-25T10:56:40.284Z,29.75
2022-08-25T10:58:56.754Z,29.81
2022-08-25T11:01:14.617Z,29.78
2022-08-25T11:03:19.229Z,30.03
2022-08-25T11:05:32.110Z,30.41
2022-08-25T11:07:38.020Z,30.36
2022-08-25T11:09:48.032Z,29.82
2022-08-25T11:11:53.730Z,29.43
2022-08-25T11:14:37.296Z,29.70
2022-08-25T11:16:52.593Z,29.85
2022-08-25T11:18:57.428Z,29.80
2022-08-25T11:21:14.597Z,29.89
2022-08-25T11:23:24.256Z,30.15
2022-08-25T11:25:38.373Z,30.50
2022-08-25T11:27:47.573Z,30.69
2022-08-25T11:30:17.519Z,30.89
2022-08-25T11:32:23.736Z,30.91
2022-08-25T11:34:26.380Z,30.92
2022-08-25T11:36:37.052Z,30.90
2022-08-25T11:38:41.295Z,30.84
2022-08-25T11:41:11.050Z,31.03
2022-08-25T11:43:35.596Z,31.21
2022-08-25T11:45:59.603Z,31.29
2022-08-25T11:48:28.682Z,31.41
2022-08-25T11:50:36.586Z,31.29
2022-08-25T11:52:46.817Z,31.23
2022-08-25T11:54:48.514Z,31.31
2022-08-25T11:57:05.084Z,31.34
2022-08-25T11:59:06.795Z,31.35
2022-08-25T12:01:32.717Z,31.35
2022-08-25T12:03:36.959Z,31.35
2022-08-25T12:05:41.461Z,31.37
2022-08-25T12:07:46.666Z,31.40
2022-08-25T12:09:51.245Z,31.43
2022-08-25T12:11:58.131Z,31.42
2022-08-25T12:14:34.202Z,31.36
2022-08-25T12:16:35.816Z,31.33
2022-08-25T12:18:45.823Z,31.29
2022-08-25T12:20:53.967Z,31.10
2022-08-25T12:22:57.563Z,30.83
2022-08-25T12:25:33.971Z,30.60
2022-08-25T12:28:11.358Z,30.53
2022-08-25T12:30:24.215Z,30.08
2022-08-25T12:32:38.503Z,29.93
2022-08-25T12:34:58.707Z,30.07
2022-08-25T12:37:10.914Z,29.99
2022-08-25T12:39:18.243Z,30.01
2022-08-25T12:41:22.104Z,30.01
2022-08-25T12:43:37.609Z,30.17
2022-08-25T12:45:48.093Z,30.37
2022-08-25T12:47:50.959Z,30.40
2022-08-25T12:49:53.069Z,30.12
2022-08-25T12:52:14.968Z,30.12
2022-08-25T12:54:38.168Z,29.91
2022-08-25T12:56:50.204Z,29.94
2022-08-25T12:59:07.269Z,30.00
2022-08-25T13:01:39.832Z,30.12
2022-08-25T13:06:14.771Z,30.22
2022-08-25T13:08:40.290Z,30.32
2022-08-25T13:10:54.352Z,30.36
2022-08-25T13:13:30.700Z,30.25
2022-08-25T13:15:47.065Z,30.38
2022-08-25T13:17:50.116Z,30.32
2022-08-25T13:20:16.337Z,30.05
2022-08-25T13:22:20.819Z,30.03
2022-08-25T13:24:29.659Z,30.03
2022-08-25T13:26:33.984Z,30.00
2022-08-25T13:28:38.014Z,29.96
2022-08-25T13:30:42.472Z,29.86
2022-08-25T13:32:44.044Z,29.78
2022-08-25T13:34:45.689Z,29.66
2022-08-25T13:37:08.073Z,29.52
2022-08-25T13:39:20.017Z,29.53
2022-08-25T13:41:58.889Z,29.53
2022-08-25T13:44:06.461Z,29.51
2022-08-25T13:46:19.175Z,29.40
2022-08-25T13:48:33.903Z,29.48
2022-08-25T13:50:38.612Z,29.44
2022-08-25T13:52:40.284Z,29.45
2022-08-25T13:54:46.896Z,29.24
2022-08-25T13:56:48.518Z,29.28
2022-08-25T13:58:50.232Z,29.38
2022-08-25T14:01:00.989Z,29.41
2022-08-25T14:03:04.064Z,29.25
2022-08-25T14:05:17.484Z,29.33
2022-08-25T14:07:20.759Z,29.33
2022-08-25T14:09:27.967Z,29.21
2022-08-25T14:11:46.395Z,29.16
2022-08-25T14:14:09.577Z,29.16
2022-08-25T14:16:20.396Z,29.12
2022-08-25T14:18:30.724Z,29.14
2022-08-25T14:20:37.254Z,29.14
2022-08-25T14:22:38.735Z,29.10
2022-08-25T14:24:43.904Z,29.16
2022-08-25T14:26:53.988Z,29.24
2022-08-25T14:28:56.469Z,29.25
2022-08-25T14:31:09.095Z,29.33
2022-08-25T14:33:12.245Z,29.39
2022-08-25T14:35:13.822Z,29.40
2022-08-25T14:37:20.165Z,29.46
2022-08-25T14:39:27.194Z,29.46
2022-08-25T14:41:29.510Z,29.46
2022-08-25T14:43:31.462Z,29.44
2022-08-25T14:45:37.751Z,29.45
2022-08-25T14:47:39.496Z,29.43
2022-08-25T14:49:43.937Z,29.43
2022-08-25T14:51:46.319Z,29.45
2022-08-25T14:53:48.161Z,29.36
2022-08-25T14:55:53.749Z,29.25
2022-08-25T14:58:00.368Z,29.27
2022-08-25T15:00:05.341Z,29.31
2022-08-25T15:02:22.568Z,29.30
2022-08-25T15:04:31.636Z,29.29
2022-08-25T15:06:35.213Z,29.29
2022-08-25T15:08:55.511Z,29.27
2022-08-25T15:10:57.943Z,29.31
2022-08-25T15:12:59.420Z,29.28
2022-08-25T15:15:01.672Z,29.28
2022-08-25T15:17:03.584Z,29.40
2022-08-25T15:19:08.183Z,29.46
2022-08-25T15:21:09.801Z,29.45
2022-08-25T15:23:11.285Z,29.46
2022-08-25T15:25:12.901Z,29.46
2022-08-25T15:27:15.334Z,29.45
2022-08-25T15:29:18.178Z,29.42
2022-08-25T15:31:21.551Z,29.33
2022-08-25T15:33:23.148Z,29.30
2022-08-25T15:35:27.686Z,29.29
2022-08-25T15:37:31.196Z,29.34
2022-08-25T15:39:32.686Z,29.36
2022-08-25T15:41:37.481Z,29.34
2022-08-25T15:43:40.014Z,29.37
2022-08-25T15:45:41.589Z,29.34
2022-08-25T15:47:43.087Z,29.31
2022-08-25T15:49:44.552Z,29.29
2022-08-25T15:51:46.070Z,29.31
2022-08-25T15:53:49.992Z,29.31
2022-08-25T15:55:52.502Z,29.33
2022-08-25T15:57:55.814Z,29.32
2022-08-25T15:59:57.279Z,29.33
2022-08-25T16:02:00.452Z,29.31
2022-08-25T16:04:02.623Z,29.28
2022-08-25T16:06:05.363Z,29.21
2022-08-25T16:08:17.513Z,29.19
2022-08-25T16:10:21.116Z,29.01
2022-08-25T16:12:24.450Z,28.92
2022-08-25T16:14:27.688Z,29.00
2022-08-25T16:16:31.008Z,28.99
2022-08-25T16:18:33.865Z,29.02
2022-08-25T16:20:36.159Z,29.07
2022-08-25T16:22:37.844Z,29.07
2022-08-25T16:24:40.677Z,29.05
2022-08-25T16:26:48.543Z,29.02
2022-08-25T16:28:50.643Z,29.04
2022-08-25T16:30:53.022Z,29.04
2022-08-25T16:32:54.743Z,28.99
2022-08-25T16:34:58.438Z,28.94
2022-08-25T16:37:00.382Z,28.93
2022-08-25T16:39:01.905Z,28.91
2022-08-25T16:41:11.597Z,28.88
2022-08-25T16:43:13.644Z,28.90
2022-08-25T16:45:15.383Z,28.88
2022-08-25T16:47:17.775Z,28.86
2022-08-25T16:49:24.430Z,28.80
2022-08-25T16:51:29.465Z,28.80
2022-08-25T16:53:49.965Z,28.75
2022-08-25T16:56:01.122Z,28.77
2022-08-25T16:58:02.668Z,28.76
2022-08-25T17:00:12.430Z,28.71
2022-08-25T17:02:14.031Z,28.65
2022-08-25T17:04:15.723Z,28.62
2022-08-25T17:06:17.389Z,28.58
2022-08-25T17:08:31.152Z,28.58
2022-08-25T17:10:38.271Z,28.60
2022-08-25T17:12:40.549Z,28.61
2022-08-25T17:14:42.114Z,28.59
2022-08-25T17:16:44.666Z,28.56
2022-08-25T17:18:47.830Z,28.57
2022-08-25T17:20:58.575Z,28.55
2022-08-25T17:23:00.974Z,28.52
2022-08-25T17:25:02.685Z,28.55
2022-08-25T17:27:09.251Z,28.56
2022-08-25T17:29:11.499Z,28.54
2022-08-25T17:31:14.719Z,28.57
2022-08-25T17:33:16.618Z,28.56
2022-08-25T17:35:22.931Z,28.50
2022-08-25T17:37:24.558Z,28.44
2022-08-25T17:39:26.555Z,28.42
2022-08-25T17:41:28.139Z,28.29
2022-08-25T17:43:31.315Z,28.26
2022-08-25T17:45:33.287Z,28.21
2022-08-25T17:47:34.862Z,28.20
2022-08-25T17:49:36.560Z,28.16
2022-08-25T17:51:38.613Z,28.12
2022-08-25T17:53:40.153Z,28.06
2022-08-25T17:55:42.355Z,27.99
2022-08-25T17:57:44.775Z,27.96
2022-08-25T17:59:46.276Z,27.93
2022-08-25T18:01:49.430Z,27.87
2022-08-25T18:03:51.641Z,27.84
2022-08-25T18:05:53.848Z,27.80
2022-08-25T18:07:55.457Z,27.76
2022-08-25T18:09:56.979Z,27.67
2022-08-25T18:11:58.608Z,27.66
2022-08-25T18:14:00.815Z,27.62
2022-08-25T18:16:02.848Z,27.60
2022-08-25T18:18:06.986Z,27.50
2022-08-25T18:20:11.257Z,27.51
2022-08-25T18:22:12.752Z,27.50
2022-08-25T18:24:14.330Z,27.46
2022-08-25T18:26:15.971Z,27.44
2022-08-25T18:28:17.798Z,27.39
2022-08-25T18:30:20.109Z,27.33
2022-08-25T18:32:22.008Z,27.27
2022-08-25T18:34:27.723Z,27.22
2022-08-25T18:36:32.470Z,27.17
2022-08-25T18:38:59.797Z,27.09
2022-08-25T18:41:06.376Z,27.07
2022-08-25T18:43:11.732Z,27.03
2022-08-25T18:45:13.271Z,26.99
2022-08-25T18:47:14.780Z,26.94
2022-08-25T18:49:17.278Z,26.88
2022-08-25T18:51:19.555Z,26.82
2022-08-25T18:53:30.372Z,26.79
2022-08-25T18:55:40.864Z,26.74
2022-08-25T18:57:42.782Z,26.68
2022-08-25T18:59:44.357Z,26.64
2022-08-25T19:01:46.669Z,26.62
2022-08-25T19:03:49.631Z,26.59
2022-08-25T19:05:57.669Z,26.59
2022-08-25T19:08:01.204Z,26.54
2022-08-25T19:10:05.068Z,26.52
2022-08-25T19:12:06.986Z,26.49
2022-08-25T19:14:14.193Z,26.47
2022-08-25T19:16:29.857Z,26.45
2022-08-25T19:18:31.536Z,26.43
2022-08-25T19:20:34.447Z,26.42
2022-08-25T19:22:41.697Z,26.39
2022-08-25T19:24:44.867Z,26.41
2022-08-25T19:26:46.859Z,26.34
2022-08-25T19:28:49.427Z,26.29
2022-08-25T19:30:51.234Z,26.25
2022-08-25T19:32:53.635Z,26.24
2022-08-25T19:34:55.852Z,26.22
2022-08-25T19:36:59.454Z,26.21
2022-08-25T19:39:01.515Z,26.17
2022-08-25T19:41:09.056Z,26.13
2022-08-25T19:43:15.847Z,26.12
2022-08-25T19:45:21.553Z,26.08
2022-08-25T19:47:24.297Z,25.99
2022-08-25T19:49:33.357Z,25.95
2022-08-25T19:51:37.677Z,25.91
2022-08-25T19:53:39.389Z,25.89
2022-08-25T19:55:42.775Z,25.87
2022-08-25T19:57:45.145Z,25.83
2022-08-25T19:59:47.379Z,25.78
2022-08-25T20:01:51.252Z,25.74
2022-08-25T20:03:52.774Z,25.71
2022-08-25T20:05:55.855Z,25.67
2022-08-25T20:07:59.646Z,25.63
2022-08-25T20:10:01.869Z,25.59
2022-08-25T20:12:06.327Z,25.54
2022-08-25T20:14:11.072Z,25.48
2022-08-25T20:16:12.644Z,25.48
2022-08-25T20:18:16.059Z,25.45
2022-08-25T20:20:21.660Z,25.44
2022-08-25T20:22:26.829Z,25.43
2022-08-25T20:24:47.011Z,25.40
2022-08-25T20:26:48.522Z,25.40
2022-08-25T20:28:49.981Z,25.37
2022-08-25T20:30:51.814Z,25.32
2022-08-25T20:32:55.679Z,25.27
2022-08-25T20:34:57.251Z,25.19
2022-08-25T20:36:59.279Z,25.17
2022-08-25T20:39:00.881Z,25.15
2022-08-25T20:41:02.963Z,25.08
2022-08-25T20:43:04.481Z,25.07
2022-08-25T20:45:07.722Z,25.03
2022-08-25T20:47:10.614Z,25.01
2022-08-25T20:49:13.595Z,24.97
2022-08-25T20:51:15.106Z,24.96
2022-08-25T20:53:20.293Z,24.91
2022-08-25T20:55:27.766Z,24.85
2022-08-25T20:57:30.255Z,24.83
2022-08-25T20:59:33.228Z,24.82
2022-08-25T21:01:42.317Z,24.79
2022-08-25T21:03:44.395Z,24.77
2022-08-25T21:05:46.257Z,24.74
2022-08-25T21:07:48.128Z,24.73
2022-08-25T21:09:50.532Z,24.72
2022-08-25T21:11:55.059Z,24.69
2022-08-25T21:13:58.506Z,24.63
2022-08-25T21:16:03.400Z,24.60
2022-08-25T21:18:07.622Z,24.59
2022-08-25T21:20:09.632Z,24.57
2022-08-25T21:22:12.702Z,24.57
2022-08-25T21:24:14.668Z,24.55
2022-08-25T21:26:22.891Z,24.51
2022-08-25T21:28:24.360Z,24.52
2022-08-25T21:30:25.892Z,24.47
2022-08-25T21:32:30.008Z,24.46
2022-08-25T21:34:31.594Z,24.47
2022-08-25T21:36:33.110Z,24.45
2022-08-25T21:38:35.068Z,24.42
2022-08-25T21:40:38.018Z,24.40
2022-08-25T21:42:40.546Z,24.38
2022-08-25T21:44:43.165Z,24.39
2022-08-25T21:46:51.203Z,24.36
2022-08-25T21:48:58.461Z,24.34
2022-08-25T21:51:09.936Z,24.33
2022-08-25T21:53:11.752Z,24.31
2022-08-25T21:55:16.069Z,24.29
2022-08-25T21:57:19.393Z,24.26
2022-08-25T21:59:29.056Z,24.24
2022-08-25T22:01:31.080Z,24.22
2022-08-25T22:03:34.680Z,24.19
2022-08-25T22:05:39.320Z,24.17
2022-08-25T22:07:42.285Z,24.16
2022-08-25T22:09:45.893Z,24.14
2022-08-25T22:11:47.872Z,24.12
2022-08-25T22:13:51.768Z,24.09
2022-08-25T22:15:56.135Z,24.05
2022-08-25T22:17:58.043Z,24.03
2022-08-25T22:19:59.697Z,24.02
2022-08-25T22:22:01.976Z,23.99
2022-08-25T22:24:03.913Z,23.97
2022-08-25T22:26:05.433Z,23.95
2022-08-25T22:28:07.424Z,23.90
2022-08-25T22:30:15.938Z,23.88
2022-08-25T22:32:18.741Z,23.87
2022-08-25T22:34:31.692Z,23.84
2022-08-25T22:36:36.803Z,23.83
2022-08-25T22:38:38.330Z,23.83
2022-08-25T22:40:40.832Z,23.80
2022-08-25T22:42:47.386Z,23.78
2022-08-25T22:44:49.509Z,23.77
2022-08-25T22:46:52.130Z,23.76
2022-08-25T22:48:55.467Z,23.73
2022-08-25T22:51:07.649Z,23.70
2022-08-25T22:53:09.307Z,23.69
2022-08-25T22:55:11.284Z,23.68
2022-08-25T22:57:13.564Z,23.69
2022-08-25T22:59:15.523Z,23.67
2022-08-25T23:01:18.987Z,23.68
2022-08-25T23:03:20.520Z,23.65
2022-08-25T23:05:22.266Z,23.65
2022-08-25T23:07:24.203Z,23.64
2022-08-25T23:09:26.028Z,23.60
2022-08-25T23:11:28.948Z,23.60
2022-08-25T23:13:34.493Z,23.59
2022-08-25T23:15:36.279Z,23.56
2022-08-25T23:17:38.460Z,23.54
2022-08-25T23:19:40.015Z,23.50
2022-08-25T23:22:01.287Z,23.48
2022-08-25T23:24:02.904Z,23.47
2022-08-25T23:26:04.791Z,23.46
2022-08-25T23:28:06.279Z,23.44
2022-08-25T23:30:08.800Z,23.42
2022-08-25T23:32:14.268Z,23.39
2022-08-25T23:34:16.714Z,23.38
2022-08-25T23:36:20.602Z,23.36
2022-08-25T23:38:23.576Z,23.33
2022-08-25T23:40:25.181Z,23.31
2022-08-25T23:42:28.628Z,23.30
2022-08-25T23:44:30.129Z,23.28
2022-08-25T23:46:32.199Z,23.25
2022-08-25T23:48:34.803Z,23.24
2022-08-25T23:50:41.506Z,23.22
2022-08-25T23:52:42.990Z,23.21
2022-08-25T23:54:46.108Z,23.16
2022-08-25T23:56:51.828Z,23.13
2022-08-25T23:58:54.124Z,23.11
